Time;durP1;ratioP1;P1;durP2;ratioP2;P2;SDS_P1;SDS_P2;PMS_P1;PMS_P2;Temp;Humidity;BMP_temperature;BMP_pressure;BME280_temperature;BME280_humidity;BME280_pressure;Samples;Min_cycle;Max_cycle;Signal;HPM_P1;HPM_P2
2022/10/20 00:01:52;;;;;;;27.38;20.90;;;;;;;14.44;nan;95508.56;5072228;28;20283;-73
2022/10/20 00:04:20;;;;;;;23.85;19.63;;;;;;;14.43;nan;95509.44;5071807;28;20209;-73
2022/10/20 00:06:47;;;;;;;29.58;19.65;;;;;;;14.44;nan;95503.44;5071316;28;20268;-72
2022/10/20 00:09:14;;;;;;;25.02;19.88;;;;;;;14.45;nan;95505.09;5070371;28;20330;-73
2022/10/20 00:11:41;;;;;;;25.42;20.15;;;;;;;14.37;nan;95507.94;5065976;28;20233;-71
2022/10/20 00:14:07;;;;;;;22.27;19.45;;;;;;;14.36;nan;95505.44;5072770;28;20206;-73
2022/10/20 00:16:37;;;;;;;25.13;19.02;;;;;;;14.33;nan;95508.16;5069987;28;20209;-74
2022/10/20 00:19:05;;;;;;;24.73;19.00;;;;;;;14.30;nan;95506.56;5070979;28;20229;-74
2022/10/20 00:21:33;;;;;;;20.38;17.67;;;;;;;14.21;nan;95507.75;5070726;28;20206;-74
2022/10/20 00:24:01;;;;;;;21.92;18.38;;;;;;;14.26;nan;95505.84;5071156;28;20201;-74
2022/10/20 00:26:29;;;;;;;21.60;17.08;;;;;;;14.31;nan;95503.09;5070517;28;20271;-74
2022/10/20 00:28:57;;;;;;;19.00;15.73;;;;;;;14.20;nan;95500.97;5071832;28;20744;-74
2022/10/20 00:31:25;;;;;;;18.88;16.88;;;;;;;14.21;nan;95502.63;5074788;28;20205;-74
2022/10/20 00:33:52;;;;;;;19.20;16.10;;;;;;;14.11;nan;95493.66;5074424;28;20292;-74
2022/10/20 00:36:21;;;;;;;19.58;16.02;;;;;;;14.15;nan;95490.09;5075227;28;20287;-74
2022/10/20 00:38:50;;;;;;;19.77;16.30;;;;;;;14.18;nan;95500.19;5075818;28;20291;-74
2022/10/20 00:41:18;;;;;;;17.25;15.45;;;;;;;14.11;nan;95493.66;5073411;28;20205;-76
2022/10/20 00:43:47;;;;;;;15.75;14.25;;;;;;;14.10;nan;95484.38;5076084;28;21982;-75
2022/10/20 00:46:17;;;;;;;20.23;15.65;;;;;;;14.03;nan;95487.22;5075511;28;20197;-75
2022/10/20 00:48:48;;;;;;;16.50;14.68;;;;;;;14.06;nan;95482.00;5075557;28;20208;-75
2022/10/20 00:51:19;;;;;;;16.42;13.95;;;;;;;14.06;nan;95480.25;5074650;28;20324;-74
2022/10/20 00:53:48;;;;;;;15.38;13.73;;;;;;;13.98;nan;95479.72;5074620;28;20206;-74
2022/10/20 00:56:16;;;;;;;17.92;13.40;;;;;;;13.98;nan;95481.47;5073780;28;20206;-74
2022/10/20 00:58:43;;;;;;;15.80;11.75;;;;;;;14.04;nan;95484.59;5074439;28;20197;-74
2022/10/20 01:01:12;;;;;;;14.27;12.63;;;;;;;14.07;nan;95487.03;5073423;28;20209;-74
2022/10/20 01:03:44;;;;;;;14.35;12.77;;;;;;;14.08;nan;95491.25;5073538;28;20329;-74
2022/10/20 01:06:12;;;;;;;12.30;11.15;;;;;;;14.03;nan;95492.31;5074461;28;20206;-75
2022/10/20 01:08:39;;;;;;;15.25;12.38;;;;;;;14.00;nan;95490.72;5074752;28;20286;-74
2022/10/20 01:11:27;;;;;;;15.80;11.90;;;;;;;13.89;nan;95487.75;5073980;28;20210;-74
2022/10/20 01:14:06;;;;;;;11.60;10.50;;;;;;;13.94;nan;95494.34;5073356;28;20691;-73
2022/10/20 01:16:42;;;;;;;15.35;12.15;;;;;;;13.98;nan;95487.41;5073064;28;20223;-75
2022/10/20 01:19:32;;;;;;;15.43;10.73;;;;;;;13.97;nan;95488.28;5073785;28;20213;-74
2022/10/20 01:22:14;;;;;;;13.18;10.52;;;;;;;13.85;nan;95488.78;5074570;28;20250;-74
2022/10/20 01:25:05;;;;;;;11.02;9.90;;;;;;;13.81;nan;95490.63;5073031;28;20292;-73
2022/10/20 01:27:36;;;;;;;10.93;9.93;;;;;;;13.81;nan;95493.19;5069276;28;20213;-73
2022/10/20 01:30:10;;;;;;;11.52;10.43;;;;;;;13.80;nan;95486.41;5073736;28;20213;-74
2022/10/20 01:33:13;;;;;;;10.77;9.82;;;;;;;13.78;nan;95488.19;5072194;28;20599;-75
2022/10/20 01:35:53;;;;;;;11.90;10.05;;;;;;;13.79;nan;95483.91;5073507;28;21016;-74
2022/10/20 01:38:25;;;;;;;12.73;10.15;;;;;;;13.67;nan;95487.75;5073327;28;20209;-74
2022/10/20 01:40:58;;;;;;;11.60;10.50;;;;;;;13.67;nan;95492.03;5073889;28;20349;-74
2022/10/20 01:43:30;;;;;;;14.65;10.70;;;;;;;13.70;nan;95484.25;5072501;28;20209;-75
2022/10/20 01:45:59;;;;;;;14.15;10.32;;;;;;;13.68;nan;95491.16;5073379;28;20236;-74
2022/10/20 01:48:31;;;;;;;11.45;10.43;;;;;;;13.55;nan;95486.53;5071770;28;20222;-74
2022/10/20 01:50:59;;;;;;;13.00;10.38;;;;;;;13.47;nan;95493.66;5074410;28;20645;-75
2022/10/20 01:53:26;;;;;;;12.52;10.98;;;;;;;13.43;nan;95492.09;5073064;28;20733;-75
2022/10/20 01:55:56;;;;;;;15.57;10.63;;;;;;;13.24;nan;95498.78;5072815;28;21333;-74
2022/10/20 01:58:58;;;;;;;10.93;9.95;;;;;;;13.33;nan;95500.16;5076944;28;20623;-74
2022/10/20 02:01:43;;;;;;;11.98;10.75;;;;;;;13.10;nan;95503.53;5063900;28;20493;-74
2022/10/20 02:04:10;;;;;;;12.07;10.07;;;;;;;13.12;nan;95507.66;5074835;28;20190;-75
2022/10/20 02:06:43;;;;;;;12.50;11.20;;;;;;;13.03;nan;95502.09;5072736;28;20322;-75
2022/10/20 02:09:15;;;;;;;10.80;9.90;;;;;;;12.93;nan;95511.78;5076201;28;20225;-74
2022/10/20 02:11:49;;;;;;;12.60;10.48;;;;;;;12.79;nan;95507.19;5078964;28;20205;-73
2022/10/20 02:14:18;;;;;;;12.32;10.60;;;;;;;12.86;nan;95518.84;5075221;28;20264;-74
2022/10/20 02:16:49;;;;;;;12.68;11.45;;;;;;;12.78;nan;95517.44;5076578;28;20262;-75
2022/10/20 02:19:19;;;;;;;12.80;11.25;;;;;;;12.75;nan;95508.16;5075837;28;20370;-75
2022/10/20 02:21:47;;;;;;;16.10;12.45;;;;;;;12.74;nan;95510.75;5073642;28;20247;-75
2022/10/20 02:24:17;;;;;;;13.57;12.20;;;;;;;12.80;nan;95524.16;5073779;28;20209;-75
2022/10/20 02:26:44;;;;;;;14.50;11.63;;;;;;;12.68;nan;95527.09;5075008;28;20229;-74
2022/10/20 02:29:15;;;;;;;13.13;11.82;;;;;;;12.62;nan;95527.31;5073854;28;21754;-73
2022/10/20 02:31:43;;;;;;;16.58;11.68;;;;;;;12.61;nan;95520.56;5074655;28;20262;-74
2022/10/20 02:34:12;;;;;;;16.13;13.02;;;;;;;12.50;nan;95517.53;5073479;28;20210;-75
2022/10/20 02:36:40;;;;;;;13.68;12.02;;;;;;;12.57;nan;95529.19;5074450;28;20232;-73
2022/10/20 02:39:08;;;;;;;17.85;12.75;;;;;;;12.50;nan;95533.66;5073864;28;20214;-74
2022/10/20 02:41:35;;;;;;;14.20;12.20;;;;;;;12.42;nan;95533.09;5072560;28;20201;-75
2022/10/20 02:44:02;;;;;;;15.85;13.38;;;;;;;12.49;nan;95526.91;5073568;28;20871;-75
2022/10/20 02:46:29;;;;;;;11.55;10.45;;;;;;;12.43;nan;95536.47;5074950;28;20879;-74
2022/10/20 02:48:55;;;;;;;14.18;12.43;;;;;;;12.45;nan;95534.69;5074421;28;20209;-74
2022/10/20 02:51:24;;;;;;;13.38;12.07;;;;;;;12.30;nan;95535.22;5073719;28;20225;-74
2022/10/20 02:53:50;;;;;;;12.75;11.40;;;;;;;12.26;nan;95532.75;5073865;28;20205;-74
2022/10/20 02:56:17;;;;;;;13.68;12.05;;;;;;;12.28;nan;95532.72;5074391;28;20209;-73
2022/10/20 02:58:44;;;;;;;18.35;11.82;;;;;;;12.25;nan;95528.53;5075251;28;20979;-73
2022/10/20 03:01:11;;;;;;;14.45;11.32;;;;;;;12.34;nan;95536.78;5073032;28;20225;-73
2022/10/20 03:03:37;;;;;;;14.57;11.43;;;;;;;12.23;nan;95540.50;5074625;28;20206;-74
2022/10/20 03:06:09;;;;;;;15.65;11.98;;;;;;;12.33;nan;95541.03;5073343;28;20294;-72
2022/10/20 03:08:37;;;;;;;13.00;11.73;;;;;;;12.20;nan;95539.75;5073474;28;20202;-73
2022/10/20 03:11:04;;;;;;;12.30;11.20;;;;;;;12.23;nan;95543.06;5073041;28;20325;-73
2022/10/20 03:13:31;;;;;;;15.55;11.60;;;;;;;12.27;nan;95543.78;5071707;28;20253;-72
2022/10/20 03:15:58;;;;;;;14.77;11.40;;;;;;;12.30;nan;95550.50;5072955;28;20271;-73
2022/10/20 03:18:25;;;;;;;13.05;11.38;;;;;;;12.18;nan;95534.72;5074064;28;20201;-73
2022/10/20 03:20:52;;;;;;;14.57;11.40;;;;;;;12.25;nan;95543.84;5073305;28;20233;-73
2022/10/20 03:23:20;;;;;;;13.77;12.40;;;;;;;12.15;nan;95542.44;5073423;28;20217;-74
2022/10/20 03:25:48;;;;;;;16.83;11.45;;;;;;;12.15;nan;95555.19;5072431;28;20278;-73
2022/10/20 03:28:15;;;;;;;12.73;11.52;;;;;;;12.04;nan;95551.34;5073217;28;20694;-73
2022/10/20 03:30:45;;;;;;;13.02;11.07;;;;;;;11.98;nan;95554.91;5073878;28;20201;-73
2022/10/20 03:33:12;;;;;;;13.95;11.23;;;;;;;11.80;nan;95560.56;5073854;28;20264;-74
2022/10/20 03:35:39;;;;;;;15.25;11.32;;;;;;;11.53;nan;95552.00;5073351;28;20202;-73
2022/10/20 03:38:05;;;;;;;13.43;12.02;;;;;;;11.54;nan;95558.75;5073415;28;21094;-73
2022/10/20 03:40:32;;;;;;;13.23;11.85;;;;;;;11.65;nan;95559.25;5073084;28;20278;-73
2022/10/20 03:43:00;;;;;;;16.42;13.18;;;;;;;11.85;nan;95556.16;5073637;28;20210;-74
2022/10/20 03:45:27;;;;;;;12.95;11.65;;;;;;;11.65;nan;95564.34;5074042;28;20714;-74
2022/10/20 03:47:54;;;;;;;21.02;15.10;;;;;;;11.48;nan;95564.03;5074403;28;20625;-74
2022/10/20 03:50:21;;;;;;;25.20;18.85;;;;;;;11.50;nan;95572.44;5072820;28;20247;-72
2022/10/20 03:52:47;;;;;;;16.77;13.30;;;;;;;11.61;nan;95575.53;5072651;28;20220;-74
2022/10/20 03:55:14;;;;;;;15.35;13.48;;;;;;;11.35;nan;95578.81;5074270;28;20213;-74
2022/10/20 03:57:42;;;;;;;13.50;12.10;;;;;;;11.38;nan;95586.38;5073542;28;20205;-73
2022/10/20 04:00:12;;;;;;;16.40;11.52;;;;;;;11.63;nan;95580.59;5074422;28;20217;-74
2022/10/20 04:02:42;;;;;;;14.88;12.00;;;;;;;11.48;nan;95584.38;5073471;28;20286;-74
2022/10/20 04:05:11;;;;;;;13.38;12.07;;;;;;;11.41;nan;95593.91;5074166;28;20581;-74
2022/10/20 04:07:37;;;;;;;13.05;11.68;;;;;;;11.34;nan;95586.50;5075568;28;20289;-74
2022/10/20 04:10:05;;;;;;;21.23;14.98;;;;;;;11.11;nan;95584.59;5076730;28;20263;-73
2022/10/20 04:12:31;;;;;;;23.65;17.33;;;;;;;11.36;nan;95588.13;5075315;28;20213;-74
2022/10/20 04:14:58;;;;;;;21.48;14.73;;;;;;;11.44;nan;95578.56;5077424;28;20209;-74
2022/10/20 04:17:26;;;;;;;14.40;12.88;;;;;;;11.49;nan;95581.81;5076372;28;21980;-76
2022/10/20 04:19:53;;;;;;;15.50;11.40;;;;;;;11.41;nan;95583.72;5077321;28;20221;-75
2022/10/20 04:22:20;;;;;;;13.13;11.25;;;;;;;11.46;nan;95586.97;5075103;28;20205;-74
2022/10/20 04:24:46;;;;;;;24.38;15.57;;;;;;;11.62;nan;95581.47;5075694;28;20378;-75
2022/10/20 04:27:14;;;;;;;16.98;12.88;;;;;;;11.62;nan;95578.91;5075529;28;20258;-73
2022/10/20 04:29:41;;;;;;;16.00;12.48;;;;;;;11.56;nan;95578.22;5074211;28;20298;-75
2022/10/20 04:32:08;;;;;;;12.73;10.90;;;;;;;11.39;nan;95580.38;5076253;28;20222;-74
2022/10/20 04:34:36;;;;;;;14.18;11.50;;;;;;;11.51;nan;95569.88;5075347;28;20197;-76
2022/10/20 04:37:02;;;;;;;15.32;11.88;;;;;;;11.36;nan;95580.50;5075223;28;20581;-74
2022/10/20 04:39:29;;;;;;;15.43;12.25;;;;;;;11.35;nan;95586.47;5076024;28;20263;-75
2022/10/20 04:41:56;;;;;;;18.27;15.68;;;;;;;11.40;nan;95579.50;5075044;28;20221;-76
2022/10/20 04:44:23;;;;;;;14.07;12.25;;;;;;;11.53;nan;95583.38;5075474;28;21515;-74
2022/10/20 04:46:49;;;;;;;13.55;12.18;;;;;;;11.44;nan;95593.81;5076351;28;20206;-73
2022/10/20 04:49:16;;;;;;;21.40;12.23;;;;;;;11.30;nan;95592.56;5075634;28;20205;-75
2022/10/20 04:51:45;;;;;;;13.43;11.98;;;;;;;11.29;nan;95581.53;5075913;28;20200;-73
2022/10/20 04:54:11;;;;;;;14.55;11.38;;;;;;;11.31;nan;95594.22;5077432;28;20205;-73
2022/10/20 04:56:38;;;;;;;12.43;11.18;;;;;;;11.40;nan;95597.31;5076165;28;20213;-74
2022/10/20 04:59:05;;;;;;;19.60;11.82;;;;;;;11.50;nan;95591.09;5075418;28;20748;-73
2022/10/20 05:01:32;;;;;;;16.75;12.23;;;;;;;11.41;nan;95598.16;5074598;28;20229;-73
2022/10/20 05:03:59;;;;;;;11.77;10.68;;;;;;;11.56;nan;95596.03;5075436;28;20205;-73
2022/10/20 05:06:28;;;;;;;19.02;12.18;;;;;;;11.68;nan;95605.00;5076295;28;20221;-72
2022/10/20 05:08:58;;;;;;;16.70;12.63;;;;;;;11.59;nan;95608.66;5075855;28;20339;-74
2022/10/20 05:11:26;;;;;;;19.40;13.20;;;;;;;11.42;nan;95610.84;5075434;28;20237;-74
2022/10/20 05:13:53;;;;;;;13.15;11.88;;;;;;;11.38;nan;95616.91;5076315;28;20302;-74
2022/10/20 05:16:21;;;;;;;12.95;11.02;;;;;;;11.39;nan;95610.91;5076482;28;20711;-73
2022/10/20 05:18:50;;;;;;;14.20;10.95;;;;;;;11.44;nan;95618.44;5076259;28;20772;-73
2022/10/20 05:21:19;;;;;;;17.52;11.70;;;;;;;11.27;nan;95620.63;5076608;28;20322;-73
2022/10/20 05:23:46;;;;;;;17.60;12.63;;;;;;;11.48;nan;95614.94;5077194;28;20237;-74
2022/10/20 05:26:17;;;;;;;18.00;13.82;;;;;;;11.45;nan;95626.03;5076293;28;20213;-74
2022/10/20 05:28:45;;;;;;;17.60;13.15;;;;;;;11.58;nan;95627.38;5075979;28;20261;-73
2022/10/20 05:31:12;;;;;;;22.80;17.25;;;;;;;11.66;nan;95639.84;5074302;28;20630;-74
2022/10/20 05:33:43;;;;;;;28.27;16.58;;;;;;;11.89;nan;95642.59;5075723;28;20271;-74
2022/10/20 05:36:11;;;;;;;16.50;12.88;;;;;;;12.16;nan;95645.19;5075391;28;20648;-74
2022/10/20 05:38:39;;;;;;;17.58;13.55;;;;;;;12.12;nan;95649.59;5075569;28;20201;-73
2022/10/20 05:41:08;;;;;;;19.52;13.85;;;;;;;12.18;nan;95654.47;5076736;28;20318;-74
2022/10/20 05:43:37;;;;;;;16.08;13.05;;;;;;;12.35;nan;95658.25;5075806;28;20209;-74
2022/10/20 05:46:06;;;;;;;16.60;12.25;;;;;;;12.49;nan;95663.72;5074668;28;20204;-75
2022/10/20 05:48:33;;;;;;;17.70;12.65;;;;;;;12.72;nan;95670.66;5076550;28;20210;-73
2022/10/20 05:51:08;;;;;;;15.18;12.98;;;;;;;12.89;nan;95671.75;5075437;28;20206;-72
2022/10/20 05:53:34;;;;;;;15.05;12.30;;;;;;;13.11;nan;95678.72;5074118;28;20212;-75
2022/10/20 05:56:04;;;;;;;16.02;12.68;;;;;;;13.51;nan;95681.59;5074536;28;20216;-74
2022/10/20 05:58:30;;;;;;;14.35;12.68;;;;;;;13.42;nan;95687.00;5075768;28;20205;-74
2022/10/20 06:01:07;;;;;;;16.83;12.68;;;;;;;13.46;nan;95685.19;5074630;28;20561;-74
2022/10/20 06:03:33;;;;;;;23.40;13.45;;;;;;;13.56;nan;95697.59;5074091;28;20232;-75
2022/10/20 06:06:01;;;;;;;16.85;12.85;;;;;;;14.28;nan;95698.34;5074488;28;20229;-73
2022/10/20 06:08:30;;;;;;;14.15;11.48;;;;;;;14.98;nan;95699.91;5075332;28;21779;-73
2022/10/20 06:10:57;;;;;;;14.35;10.70;;;;;;;15.18;nan;95706.75;5075899;28;20198;-73
2022/10/20 06:13:23;;;;;;;16.63;11.25;;;;;;;14.83;nan;95709.03;5075259;28;20213;-73
2022/10/20 06:15:50;;;;;;;15.43;11.98;;;;;;;14.95;nan;95711.09;5073948;28;20210;-72
2022/10/20 06:18:18;;;;;;;16.40;12.43;;;;;;;15.26;nan;95714.97;5073885;28;20228;-74
2022/10/20 06:20:48;;;;;;;13.65;11.57;;;;;;;15.16;nan;95711.09;5076700;28;20620;-75
2022/10/20 06:23:14;;;;;;;14.93;13.20;;;;;;;14.80;nan;95727.06;5074750;28;20214;-73
2022/10/20 06:25:41;;;;;;;15.80;12.65;;;;;;;14.57;nan;95725.41;5074768;28;20699;-73
2022/10/20 06:28:08;;;;;;;16.40;13.32;;;;;;;14.61;nan;95736.34;5074196;28;20202;-74
2022/10/20 06:30:35;;;;;;;17.13;14.20;;;;;;;14.73;nan;95727.38;5076264;28;20246;-73
2022/10/20 06:33:02;;;;;;;24.55;14.77;;;;;;;15.00;nan;95728.00;5075121;28;20241;-74
2022/10/20 06:35:32;;;;;;;15.63;11.75;;;;;;;15.51;nan;95733.53;5075624;28;20620;-72
2022/10/20 06:37:59;;;;;;;14.77;12.82;;;;;;;15.83;nan;95737.34;5073867;28;20209;-72
2022/10/20 06:40:25;;;;;;;15.10;13.40;;;;;;;15.68;nan;95742.25;5074101;28;20205;-73
2022/10/20 06:42:52;;;;;;;15.57;13.48;;;;;;;15.25;nan;95736.34;5074218;28;20621;-73
2022/10/20 06:45:19;;;;;;;15.00;12.90;;;;;;;14.96;nan;95738.34;5073133;28;20201;-74
2022/10/20 06:47:46;;;;;;;15.25;13.55;;;;;;;14.78;nan;95739.09;5074945;28;20259;-74
2022/10/20 06:50:22;;;;;;;13.95;12.60;;;;;;;14.48;nan;95737.72;5074331;28;20202;-73
2022/10/20 06:52:52;;;;;;;16.58;13.45;;;;;;;14.34;nan;95743.31;5076102;28;21741;-73
2022/10/20 06:55:18;;;;;;;18.05;13.18;;;;;;;14.30;nan;95746.88;5074347;28;20233;-74
2022/10/20 06:57:45;;;;;;;19.38;12.82;;;;;;;14.59;nan;95754.31;5074591;28;20209;-75
2022/10/20 07:00:13;;;;;;;17.17;13.77;;;;;;;14.58;nan;95749.28;5074026;28;20206;-74
2022/10/20 07:02:39;;;;;;;14.00;12.55;;;;;;;14.37;nan;95755.13;5073173;28;20244;-72
2022/10/20 07:05:07;;;;;;;14.13;10.80;;;;;;;14.51;nan;95752.94;5073708;28;20202;-72
2022/10/20 07:07:34;;;;;;;13.65;12.32;;;;;;;14.47;nan;95759.88;5074738;28;20233;-73
2022/10/20 07:10:02;;;;;;;16.80;11.90;;;;;;;14.83;nan;95764.50;5072361;28;21159;-75
2022/10/20 07:12:28;;;;;;;16.05;13.15;;;;;;;14.74;nan;95750.34;5073684;28;20751;-73
2022/10/20 07:14:55;;;;;;;15.77;12.25;;;;;;;14.93;nan;95751.28;5074801;28;21365;-74
2022/10/20 07:17:22;;;;;;;15.90;12.85;;;;;;;15.29;nan;95759.22;5073217;28;20216;-74
2022/10/20 07:19:49;;;;;;;19.02;12.73;;;;;;;15.49;nan;95755.81;5074750;28;20205;-75
2022/10/20 07:22:15;;;;;;;17.45;12.32;;;;;;;15.45;nan;95761.97;5072231;28;20228;-73
2022/10/20 07:24:42;;;;;;;16.73;12.68;;;;;;;15.53;nan;95756.53;5072223;28;20263;-74
2022/10/20 07:27:10;;;;;;;14.38;11.20;;;;;;;15.50;nan;95759.22;5074671;28;20216;-74
2022/10/20 07:29:37;;;;;;;13.50;11.93;;;;;;;15.63;nan;95753.53;5074432;28;20286;-74
2022/10/20 07:32:04;;;;;;;13.45;12.05;;;;;;;15.89;nan;95754.16;5073228;28;20247;-75
2022/10/20 07:34:31;;;;;;;13.77;12.35;;;;;;;15.62;nan;95764.69;5073513;28;20321;-72
2022/10/20 07:36:58;;;;;;;13.73;11.55;;;;;;;15.63;nan;95758.66;5072385;28;20210;-73
2022/10/20 07:39:27;;;;;;;17.73;11.40;;;;;;;16.19;nan;95755.38;5074652;28;20206;-75
2022/10/20 07:41:55;;;;;;;15.73;11.73;;;;;;;17.00;nan;95749.94;5077940;28;20326;-74
2022/10/20 07:44:23;;;;;;;11.38;10.23;;;;;;;18.12;nan;95747.75;5077922;28;20197;-74
2022/10/20 07:46:50;;;;;;;11.43;10.30;;;;;;;19.06;nan;95744.38;5076729;28;20204;-74
2022/10/20 07:49:16;;;;;;;13.18;10.45;;;;;;;19.44;nan;95751.72;5078583;28;20197;-72
2022/10/20 07:51:43;;;;;;;10.68;9.55;;;;;;;19.51;nan;95753.06;5078806;28;20197;-72
2022/10/20 07:54:10;;;;;;;11.45;10.38;;;;;;;20.71;nan;95738.06;5080372;28;20239;-75
2022/10/20 07:56:39;;;;;;;12.93;8.88;;;;;;;22.85;nan;95738.34;5079511;28;20232;-72
2022/10/20 07:59:07;;;;;;;10.98;9.93;;;;;;;24.95;nan;95740.66;5078246;28;20288;-73
2022/10/20 08:01:35;;;;;;;9.77;8.98;;;;;;;25.68;nan;95732.09;5076909;28;20222;-72
2022/10/20 08:04:02;;;;;;;9.65;8.88;;;;;;;25.31;nan;95726.44;5077815;28;20214;-74
2022/10/20 08:06:29;;;;;;;12.27;9.38;;;;;;;25.54;nan;95731.53;5077190;28;20726;-73
2022/10/20 08:08:56;;;;;;;11.38;9.82;;;;;;;26.58;nan;95723.63;5078966;28;20246;-74
2022/10/20 08:11:47;;;;;;;9.15;8.35;;;;;;;26.84;nan;95729.19;5078434;28;20208;-75
2022/10/20 08:14:13;;;;;;;11.93;8.40;;;;;;;28.58;nan;95727.22;5072674;28;20254;-73
2022/10/20 08:16:41;;;;;;;9.05;8.05;;;;;;;29.09;nan;95727.50;5075831;28;20205;-73
2022/10/20 08:19:08;;;;;;;9.75;7.68;;;;;;;28.59;nan;95734.09;5077505;28;20197;-74
2022/10/20 08:21:35;;;;;;;8.68;7.78;;;;;;;28.97;nan;95731.28;5074924;28;20216;-72
2022/10/20 08:24:03;;;;;;;10.27;7.60;;;;;;;29.70;nan;95724.13;5075974;28;20676;-74
2022/10/20 08:26:30;;;;;;;8.52;6.43;;;;;;;28.92;nan;95715.22;5077031;28;20198;-74
2022/10/20 08:28:56;;;;;;;8.00;7.20;;;;;;;28.98;nan;95717.22;5077196;28;20200;-73
2022/10/20 08:31:23;;;;;;;7.05;6.55;;;;;;;28.17;nan;95720.63;5076919;28;20201;-74
2022/10/20 08:33:52;;;;;;;7.30;6.57;;;;;;;27.75;nan;95727.06;5077102;28;20645;-73
2022/10/20 08:36:24;;;;;;;8.75;6.63;;;;;;;28.04;nan;95720.94;5074305;28;20208;-73
2022/10/20 08:38:53;;;;;;;6.53;6.03;;;;;;;28.12;nan;95721.06;5077272;28;20261;-73
2022/10/20 08:41:23;;;;;;;9.98;6.45;;;;;;;28.70;nan;95703.34;5078874;28;20229;-74
2022/10/20 08:43:52;;;;;;;6.22;5.63;;;;;;;28.99;nan;95710.22;5077739;28;20294;-72
2022/10/20 08:46:32;;;;;;;7.32;6.18;;;;;;;29.10;nan;95705.59;5075078;28;20233;-74
2022/10/20 08:49:01;;;;;;;7.25;6.40;;;;;;;29.42;nan;95709.50;5076797;28;20209;-72
2022/10/20 08:51:31;;;;;;;10.30;6.07;;;;;;;30.62;nan;95707.00;5076492;28;20205;-74
2022/10/20 08:54:01;;;;;;;5.28;4.90;;;;;;;29.77;nan;95700.75;5077694;28;20206;-73
2022/10/20 08:56:33;;;;;;;15.23;5.53;;;;;;;27.97;nan;95704.19;5075152;28;20209;-72
2022/10/20 08:59:02;;;;;;;5.97;5.43;;;;;;;28.56;nan;95700.41;5077632;28;20210;-71
2022/10/20 09:01:33;;;;;;;8.73;5.38;;;;;;;27.98;nan;95700.59;5077226;28;20232;-72
2022/10/20 09:04:19;;;;;;;5.57;4.60;;;;;;;27.84;nan;95703.69;5078627;28;20293;-74
2022/10/20 09:06:49;;;;;;;7.40;5.60;;;;;;;27.01;nan;95711.13;5076022;28;20225;-73
2022/10/20 09:09:19;;;;;;;5.78;5.22;;;;;;;26.38;nan;95707.94;5077364;28;20209;-73
2022/10/20 09:11:47;;;;;;;4.78;3.47;;;;;;;26.93;nan;95718.78;5074429;28;20209;-74
2022/10/20 09:14:15;;;;;;;5.18;4.80;;;;;;;26.67;nan;95707.19;5076691;28;21145;-73
2022/10/20 09:16:45;;;;;;;5.35;4.88;;;;;;;26.81;nan;95708.59;5076318;28;20201;-72
2022/10/20 09:19:18;;;;;;;5.43;5.03;;;;;;;26.32;nan;95713.66;5075985;28;20760;-74
2022/10/20 09:21:47;;;;;;;5.07;4.65;;;;;;;25.76;nan;95715.81;5078359;28;20226;-72
2022/10/20 09:24:14;;;;;;;5.05;4.75;;;;;;;26.03;nan;95715.28;5074912;28;20227;-73
2022/10/20 09:26:44;;;;;;;7.80;4.85;;;;;;;24.77;nan;95721.25;5075044;28;20201;-73
2022/10/20 09:29:12;;;;;;;5.30;4.50;;;;;;;23.53;nan;95719.56;5078479;28;20308;-74
2022/10/20 09:31:41;;;;;;;5.55;4.63;;;;;;;23.69;nan;95725.28;5075734;28;20250;-74
2022/10/20 09:34:29;;;;;;;4.75;3.60;;;;;;;23.87;nan;95720.47;5078776;28;20206;-73
2022/10/20 09:37:01;;;;;;;4.75;4.35;;;;;;;22.69;nan;95719.63;5076973;28;20212;-73
2022/10/20 09:39:32;;;;;;;4.40;4.00;;;;;;;22.32;nan;95719.59;5074686;28;20255;-75
2022/10/20 09:42:05;;;;;;;8.15;4.60;;;;;;;22.01;nan;95723.50;5074459;28;20229;-74
2022/10/20 09:44:35;;;;;;;4.28;3.97;;;;;;;21.54;nan;95712.88;5075279;28;20202;-74
2022/10/20 09:47:02;;;;;;;4.95;4.55;;;;;;;21.17;nan;95710.09;5072901;28;20210;-73
2022/10/20 09:49:35;;;;;;;7.18;3.78;;;;;;;20.62;nan;95707.63;5073475;28;20675;-73
2022/10/20 09:52:04;;;;;;;4.07;3.80;;;;;;;20.14;nan;95711.47;5074625;28;20226;-74
2022/10/20 09:54:31;;;;;;;5.53;3.72;;;;;;;19.84;nan;95708.97;5073097;28;20203;-75
2022/10/20 09:57:05;;;;;;;5.18;4.68;;;;;;;19.69;nan;95705.56;5075003;28;20198;-73
2022/10/20 09:59:36;;;;;;;3.63;3.42;;;;;;;19.43;nan;95712.22;5074061;28;20196;-73
2022/10/20 10:02:04;;;;;;;3.97;3.75;;;;;;;19.28;nan;95710.53;5072080;28;20761;-72
2022/10/20 10:04:37;;;;;;;4.28;3.97;;;;;;;19.18;nan;95709.38;5074584;28;20893;-73
2022/10/20 10:07:04;;;;;;;3.67;3.47;;;;;;;18.99;nan;95707.03;5072912;28;20222;-74
2022/10/20 10:09:34;;;;;;;4.30;3.80;;;;;;;18.99;nan;95704.44;5072766;28;20688;-73
2022/10/20 10:12:04;;;;;;;3.63;3.42;;;;;;;19.24;nan;95698.72;5070392;28;20209;-74
2022/10/20 10:14:33;;;;;;;4.18;3.72;;;;;;;19.16;nan;95704.31;5072664;28;20202;-74
2022/10/20 10:17:01;;;;;;;6.50;3.63;;;;;;;18.97;nan;95696.81;5070944;28;20208;-73
2022/10/20 10:19:29;;;;;;;4.38;3.92;;;;;;;18.65;nan;95695.19;5073595;28;20687;-72
2022/10/20 10:22:00;;;;;;;3.85;3.55;;;;;;;18.72;nan;95706.00;5073276;28;20306;-73
2022/10/20 10:24:40;;;;;;;3.78;3.28;;;;;;;18.78;nan;95693.63;5073692;28;20196;-74
2022/10/20 10:27:19;;;;;;;5.85;3.30;;;;;;;18.96;nan;95695.16;5072553;28;20205;-74
2022/10/20 10:29:46;;;;;;;3.50;3.30;;;;;;;19.10;nan;95684.03;5072296;28;20793;-72
2022/10/20 10:32:16;;;;;;;4.07;3.78;;;;;;;19.08;nan;95687.63;5073394;28;20778;-73
2022/10/20 10:35:01;;;;;;;4.15;3.80;;;;;;;18.86;nan;95688.84;5073912;28;20631;-73
2022/10/20 10:37:31;;;;;;;3.63;3.33;;;;;;;19.00;nan;95685.50;5073347;28;20198;-73
2022/10/20 10:39:58;;;;;;;3.67;3.40;;;;;;;18.81;nan;95685.69;5072836;28;20282;-72
2022/10/20 10:42:46;;;;;;;3.97;3.67;;;;;;;18.85;nan;95682.03;5074184;28;20330;-73
2022/10/20 10:45:22;;;;;;;4.05;3.85;;;;;;;19.12;nan;95676.22;5073018;28;20722;-73
2022/10/20 10:48:05;;;;;;;4.45;4.15;;;;;;;19.27;nan;95672.78;5074424;28;20260;-73
2022/10/20 10:50:41;;;;;;;5.60;4.13;;;;;;;19.27;nan;95671.03;5073969;28;20251;-73
2022/10/20 10:53:20;;;;;;;4.70;3.58;;;;;;;18.98;nan;95672.72;5057134;28;20283;-72
2022/10/20 10:55:55;;;;;;;3.72;3.53;;;;;;;18.98;nan;95662.41;5074289;28;20679;-72
2022/10/20 10:58:34;;;;;;;4.82;3.60;;;;;;;19.22;nan;95664.50;5072406;28;20995;-73
2022/10/20 11:01:10;;;;;;;4.57;3.97;;;;;;;19.38;nan;95666.06;5072850;28;20267;-72
2022/10/20 11:03:58;;;;;;;4.70;4.30;;;;;;;19.22;nan;95667.06;5072537;28;20247;-73
2022/10/20 11:06:35;;;;;;;6.25;3.22;;;;;;;19.23;nan;95655.84;5071841;28;20717;-73
2022/10/20 11:09:24;;;;;;;4.07;3.63;;;;;;;19.33;nan;95656.94;5072447;28;20209;-73
2022/10/20 11:12:18;;;;;;;4.07;3.83;;;;;;;19.21;nan;95653.34;5071740;28;20197;-74
2022/10/20 11:14:54;;;;;;;4.18;3.47;;;;;;;19.35;nan;95655.94;5055010;28;20210;-74
2022/10/20 11:17:34;;;;;;;4.05;3.75;;;;;;;19.37;nan;95653.28;5071324;28;20492;-73
2022/10/20 11:20:21;;;;;;;3.70;3.50;;;;;;;19.05;nan;95644.84;5071341;28;20723;-72
2022/10/20 11:23:07;;;;;;;4.50;4.10;;;;;;;18.94;nan;95637.75;5071900;28;20224;-73
2022/10/20 11:25:43;;;;;;;3.45;3.08;;;;;;;18.85;nan;95640.81;5071818;28;20267;-72
2022/10/20 11:28:27;;;;;;;4.15;3.85;;;;;;;18.78;nan;95639.53;5070806;28;20209;-72
2022/10/20 11:30:55;;;;;;;3.97;3.67;;;;;;;19.05;nan;95636.31;5071307;28;20249;-72
2022/10/20 11:33:27;;;;;;;3.97;3.67;;;;;;;19.17;nan;95627.84;5071897;28;20200;-73
2022/10/20 11:36:00;;;;;;;4.03;3.67;;;;;;;19.29;nan;95634.88;5071808;28;20210;-74
2022/10/20 11:38:32;;;;;;;4.22;3.75;;;;;;;19.27;nan;95628.97;5072295;28;20213;-73
2022/10/20 11:41:05;;;;;;;4.63;3.53;;;;;;;19.34;nan;95632.84;5072363;28;20225;-73
2022/10/20 11:43:36;;;;;;;6.25;3.78;;;;;;;19.45;nan;95620.16;5072794;28;20221;-73
2022/10/20 11:46:08;;;;;;;3.25;3.00;;;;;;;19.28;nan;95617.75;5072072;28;20232;-73
2022/10/20 11:48:40;;;;;;;3.60;3.40;;;;;;;19.37;nan;95617.19;5070603;28;20206;-73
2022/10/20 11:51:22;;;;;;;4.10;3.78;;;;;;;19.38;nan;95613.69;5071708;28;20279;-74
2022/10/20 11:54:07;;;;;;;4.68;4.13;;;;;;;19.30;nan;95621.06;5073776;28;22103;-74